Time;durP1;ratioP1;P1;durP2;ratioP2;P2;SDS_P1;SDS_P2;PMS_P1;PMS_P2;Temp;Humidity;BMP_temperature;BMP_pressure;BME280_temperature;BME280_humidity;BME280_pressure;Samples;Min_cycle;Max_cycle;Signal;HPM_P1;HPM_P2
2022/07/21 00:00:06;;;;;;;28.73;19.63;;;18.90;99.90;;;;;;5095904;28;20445;-83
2022/07/21 00:02:32;;;;;;;26.00;19.70;;;;;;;;;;5074126;28;20462;-83
2022/07/21 00:04:58;;;;;;;27.27;20.73;;;19.00;99.90;;;;;;5090977;28;20486;-83
2022/07/21 00:07:23;;;;;;;26.80;20.03;;;19.10;99.90;;;;;;5085964;28;20481;-84
2022/07/21 00:09:49;;;;;;;32.37;22.10;;;19.10;99.90;;;;;;5080868;28;20190;-80
2022/07/21 00:12:14;;;;;;;30.80;22.17;;;19.00;99.90;;;;;;5086040;28;20718;-86
2022/07/21 00:14:40;;;;;;;24.63;22.03;;;19.10;99.90;;;;;;5098696;28;20218;-84
2022/07/21 00:17:05;;;;;;;25.70;21.57;;;19.10;99.90;;;;;;5075137;28;20238;-84
2022/07/21 00:19:31;;;;;;;28.43;19.33;;;19.10;99.90;;;;;;5094172;28;20192;-85
2022/07/21 00:21:56;;;;;;;23.63;18.47;;;19.00;99.90;;;;;;5081316;28;20208;-84
2022/07/21 00:24:22;;;;;;;25.40;17.90;;;;;;;;;;5096149;28;20186;-84
2022/07/21 00:26:48;;;;;;;25.40;19.73;;;18.90;99.90;;;;;;5095833;28;20199;-86
2022/07/21 00:29:13;;;;;;;22.53;20.10;;;18.80;99.90;;;;;;5090674;28;20439;-86
2022/07/21 00:31:39;;;;;;;27.83;19.47;;;18.70;99.90;;;;;;5076171;28;20180;-87
2022/07/21 00:34:05;;;;;;;22.10;18.40;;;;;;;;;;5080357;28;20265;-87
2022/07/21 00:36:30;;;;;;;24.03;18.00;;;18.80;99.90;;;;;;5079561;28;20180;-85
2022/07/21 00:38:56;;;;;;;19.53;17.40;;;18.80;99.90;;;;;;5092027;23;20488;-88
2022/07/21 00:41:21;;;;;;;28.70;19.60;;;18.80;99.90;;;;;;5075106;28;20199;-88
2022/07/21 00:43:47;;;;;;;28.80;20.57;;;18.90;99.90;;;;;;5084943;28;20188;-87
2022/07/21 00:46:12;;;;;;;24.63;19.67;;;18.70;99.90;;;;;;5084240;28;20201;-87
2022/07/21 00:48:38;;;;;;;21.87;18.30;;;18.70;99.90;;;;;;5068450;28;20190;-88
2022/07/21 00:51:04;;;;;;;22.03;16.27;;;18.50;99.90;;;;;;5084052;28;20673;-88
2022/07/21 00:53:30;;;;;;;21.00;16.20;;;18.80;99.90;;;;;;5093058;28;20187;-88
2022/07/21 00:55:55;;;;;;;24.23;16.40;;;18.90;99.90;;;;;;5074679;28;20208;-87
2022/07/21 00:58:23;;;;;;;26.73;16.43;;;19.00;99.90;;;;;;5091216;28;20976;-88
2022/07/21 01:00:49;;;;;;;20.33;15.80;;;19.10;99.90;;;;;;5059900;28;20216;-88
2022/07/21 01:03:14;;;;;;;17.83;15.50;;;19.10;99.90;;;;;;5066517;28;20996;-88
2022/07/21 01:05:40;;;;;;;17.50;14.30;;;19.10;99.90;;;;;;5065934;28;20237;-88
2022/07/21 01:08:06;;;;;;;17.50;15.40;;;19.30;99.90;;;;;;5076694;28;20185;-87
2022/07/21 01:10:32;;;;;;;18.93;15.77;;;19.30;99.90;;;;;;5076926;28;20265;-88
2022/07/21 01:12:59;;;;;;;20.23;15.23;;;19.30;99.90;;;;;;5075863;28;20209;-88
2022/07/21 01:15:25;;;;;;;18.53;16.20;;;19.90;99.90;;;;;;5063464;28;20487;-88
2022/07/21 01:17:51;;;;;;;15.17;13.37;;;19.40;99.90;;;;;;5070259;28;20436;-88
2022/07/21 01:20:20;;;;;;;18.43;14.60;;;19.40;99.90;;;;;;5074203;28;20202;-88
2022/07/21 01:22:48;;;;;;;20.43;15.10;;;19.40;99.90;;;;;;5073811;28;20476;-88
2022/07/21 01:25:14;;;;;;;17.60;14.30;;;19.40;99.90;;;;;;5081586;28;20456;-88
2022/07/21 01:27:40;;;;;;;20.17;15.13;;;19.40;99.90;;;;;;5078302;28;20465;-87
2022/07/21 01:30:07;;;;;;;17.90;16.00;;;19.30;99.90;;;;;;5084613;28;20436;-87
2022/07/21 01:32:34;;;;;;;17.37;14.93;;;19.40;99.90;;;;;;5064434;28;20222;-86
2022/07/21 01:35:01;;;;;;;17.10;13.83;;;19.50;99.90;;;;;;5059981;28;20488;-88
2022/07/21 01:37:28;;;;;;;16.53;14.73;;;19.40;99.90;;;;;;5092572;28;20921;-88
2022/07/21 01:42:38;;;;;;;21.93;13.07;;;19.40;99.90;;;;;;5084559;28;20484;-88
2022/07/21 01:45:05;;;;;;;16.40;14.10;;;19.30;99.90;;;;;;5067477;28;20465;-88
2022/07/21 01:47:31;;;;;;;18.70;14.37;;;19.40;99.90;;;;;;5080237;28;20181;-87
2022/07/21 01:49:56;;;;;;;20.67;14.83;;;19.40;99.90;;;;;;5075112;28;20442;-87
2022/07/21 01:52:22;;;;;;;18.70;13.50;;;19.40;99.90;;;;;;5098868;28;20524;-87
2022/07/21 01:54:48;;;;;;;18.30;16.17;;;19.40;99.90;;;;;;5087244;28;20740;-88
2022/07/21 01:57:13;;;;;;;18.83;15.10;;;20.10;99.90;;;;;;5075411;28;20178;-87
2022/07/21 01:59:39;;;;;;;16.53;14.27;;;19.50;99.90;;;;;;5068480;28;20202;-87
2022/07/21 02:02:04;;;;;;;18.63;15.10;;;19.60;99.90;;;;;;5086275;28;20208;-87
2022/07/21 02:04:30;;;;;;;17.30;13.73;;;19.70;99.90;;;;;;5085739;28;20211;-88
2022/07/21 02:06:56;;;;;;;18.53;15.20;;;21.30;99.90;;;;;;5114339;27;20375;-87
2022/07/21 02:09:22;;;;;;;18.23;15.43;;;19.70;99.90;;;;;;5078266;28;20195;-87
2022/07/21 02:11:47;;;;;;;18.13;14.93;;;19.60;99.90;;;;;;5073566;28;20191;-87
2022/07/21 02:14:13;;;;;;;17.43;15.60;;;20.10;99.90;;;;;;5085529;28;20450;-86
2022/07/21 02:16:39;;;;;;;19.63;15.10;;;;;;;;;;5087722;28;20196;-87
2022/07/21 02:19:04;;;;;;;19.93;15.20;;;19.50;99.90;;;;;;5082896;28;20188;-88
2022/07/21 02:21:30;;;;;;;20.63;16.07;;;19.50;99.90;;;;;;5086337;28;20481;-86
2022/07/21 02:23:56;;;;;;;21.10;15.33;;;19.60;99.90;;;;;;5083650;28;20190;-87
2022/07/21 02:26:21;;;;;;;22.97;15.27;;;19.60;99.90;;;;;;5093358;28;20616;-87
2022/07/21 02:28:47;;;;;;;17.23;15.00;;;19.60;99.90;;;;;;5094799;28;20446;-88
2022/07/21 02:31:13;;;;;;;31.13;15.97;;;;;;;;;;5077416;28;20188;-87
2022/07/21 02:33:38;;;;;;;18.87;14.77;;;19.70;99.90;;;;;;5062647;28;20283;-86
2022/07/21 02:36:04;;;;;;;25.40;16.60;;;19.60;99.90;;;;;;5068981;28;20469;-86
2022/07/21 02:38:30;;;;;;;20.97;15.47;;;19.50;99.90;;;;;;5092395;28;20210;-87
2022/07/21 02:40:55;;;;;;;16.80;14.43;;;19.50;99.90;;;;;;5077955;28;20429;-86
2022/07/21 02:43:21;;;;;;;19.20;15.00;;;19.50;99.90;;;;;;5072819;28;20214;-88
2022/07/21 02:45:46;;;;;;;17.73;15.17;;;19.50;99.90;;;;;;5068376;28;20702;-88
2022/07/21 02:48:13;;;;;;;18.70;15.40;;;19.50;99.90;;;;;;5082395;28;20211;-86
2022/07/21 02:50:41;;;;;;;21.17;14.73;;;19.60;99.90;;;;;;5089523;28;20189;-86
2022/07/21 02:53:19;;;;;;;43.10;25.50;;;19.50;99.90;;;;;;5080010;28;20453;-87
2022/07/21 02:55:46;;;;;;;17.50;13.90;;;19.60;99.90;;;;;;5091200;28;20475;-87
2022/07/21 02:58:11;;;;;;;16.70;12.93;;;19.60;99.90;;;;;;5069856;28;20462;-87
2022/07/21 03:00:40;;;;;;;21.03;14.33;;;19.60;99.90;;;;;;5087777;28;20501;-87
2022/07/21 03:03:06;;;;;;;17.93;13.70;;;19.70;99.90;;;;;;5084978;28;21747;-86
2022/07/21 03:05:32;;;;;;;15.73;12.77;;;19.90;99.90;;;;;;5080098;28;20462;-87
2022/07/21 03:07:58;;;;;;;228.80;87.90;;;;;;;;;;5078018;28;20437;-87
2022/07/21 03:10:23;;;;;;;83.93;49.30;;;19.90;99.90;;;;;;5077630;28;20502;-87
2022/07/21 03:12:49;;;;;;;16.43;14.57;;;;;;;;;;5087273;28;20545;-86
2022/07/21 03:15:15;;;;;;;16.53;12.97;;;19.90;99.90;;;;;;5079922;28;20199;-86
2022/07/21 03:17:40;;;;;;;18.43;14.50;;;20.00;99.90;;;;;;5071685;28;20450;-87
2022/07/21 03:20:06;;;;;;;20.33;15.80;;;20.00;99.90;;;;;;5091924;28;20179;-85
2022/07/21 03:22:32;;;;;;;21.17;14.57;;;19.90;99.90;;;;;;5090733;28;20330;-87
2022/07/21 03:24:57;;;;;;;17.70;14.87;;;19.90;99.90;;;;;;5096819;28;20448;-86
2022/07/21 03:27:23;;;;;;;16.60;14.80;;;19.90;99.90;;;;;;5075361;28;20191;-86
2022/07/21 03:29:48;;;;;;;21.50;16.83;;;20.00;99.90;;;;;;5083118;28;20184;-86
2022/07/21 03:32:14;;;;;;;22.23;15.57;;;19.90;99.90;;;;;;5076648;28;21555;-86
2022/07/21 03:34:39;;;;;;;22.77;16.70;;;19.70;99.90;;;;;;5069365;28;20190;-85
2022/07/21 03:37:05;;;;;;;20.73;16.17;;;19.70;99.90;;;;;;5101917;28;20188;-85
2022/07/21 03:39:31;;;;;;;18.57;15.13;;;20.00;99.90;;;;;;5091826;28;20199;-87
2022/07/21 03:41:56;;;;;;;21.50;16.50;;;19.90;99.90;;;;;;5083883;28;20199;-86
2022/07/21 03:44:22;;;;;;;18.00;16.10;;;19.90;99.90;;;;;;5081312;28;20179;-85
2022/07/21 03:46:47;;;;;;;22.33;17.40;;;19.90;99.90;;;;;;5089129;28;20208;-87
2022/07/21 03:49:13;;;;;;;22.80;17.93;;;19.70;99.90;;;;;;5079660;28;20180;-86
2022/07/21 03:51:38;;;;;;;21.27;17.30;;;19.80;99.90;;;;;;5103921;28;20183;-87
2022/07/21 03:54:04;;;;;;;19.83;17.23;;;19.70;99.90;;;;;;5083473;28;20180;-87
2022/07/21 03:56:29;;;;;;;21.10;18.90;;;19.80;99.90;;;;;;5078058;28;20309;-85
2022/07/21 03:58:55;;;;;;;19.13;17.13;;;19.80;99.90;;;;;;5086771;28;20187;-87
2022/07/21 04:01:21;;;;;;;20.80;16.20;;;19.70;99.90;;;;;;5078544;28;20284;-86
2022/07/21 04:03:46;;;;;;;20.63;16.43;;;19.70;99.90;;;;;;5069239;28;20207;-85
2022/07/21 04:06:12;;;;;;;23.40;18.67;;;19.70;99.90;;;;;;5104602;28;20198;-86
2022/07/21 04:08:38;;;;;;;25.17;18.20;;;19.50;99.90;;;;;;5082217;28;20593;-86
2022/07/21 04:11:04;;;;;;;21.70;18.10;;;19.90;99.90;;;;;;5066536;28;20217;-87
2022/07/21 04:13:30;;;;;;;21.00;17.30;;;19.40;99.90;;;;;;5086964;28;20610;-86
2022/07/21 04:15:55;;;;;;;23.70;18.90;;;19.50;99.90;;;;;;5067683;28;21015;-86
2022/07/21 04:18:21;;;;;;;19.93;15.70;;;19.60;99.90;;;;;;5077631;28;20187;-87
2022/07/21 04:20:46;;;;;;;25.00;17.60;;;19.50;99.90;;;;;;5092009;28;20188;-87
2022/07/21 04:23:12;;;;;;;20.37;17.83;;;19.50;99.90;;;;;;5059803;28;22030;-87
2022/07/21 04:25:38;;;;;;;22.20;17.47;;;19.50;99.90;;;;;;5063278;28;20287;-87
2022/07/21 04:28:05;;;;;;;22.97;18.43;;;19.50;99.90;;;;;;5073534;28;20633;-88
2022/07/21 04:30:31;;;;;;;20.63;18.00;;;19.50;99.90;;;;;;5065571;28;20437;-87
2022/07/21 04:32:56;;;;;;;23.20;17.40;;;19.50;99.90;;;;;;5052305;28;20442;-86
2022/07/21 04:35:22;;;;;;;24.33;17.10;;;19.50;99.90;;;;;;5034310;28;21311;-87
2022/07/21 04:37:48;;;;;;;24.63;18.30;;;20.00;99.90;;;;;;5032407;28;20719;-86
2022/07/21 04:40:14;;;;;;;19.33;16.80;;;19.60;99.90;;;;;;5030445;28;20557;-86
2022/07/21 04:42:42;;;;;;;18.93;15.87;;;19.70;99.90;;;;;;5044800;28;20247;-84
2022/07/21 04:45:11;;;;;;;20.10;17.47;;;19.70;99.90;;;;;;5073827;28;20449;-87
2022/07/21 04:47:44;;;;;;;20.83;18.60;;;19.80;99.90;;;;;;5069878;28;20844;-86
2022/07/21 04:50:10;;;;;;;22.10;17.47;;;19.80;99.90;;;;;;5045403;28;20445;-87
2022/07/21 04:52:36;;;;;;;26.30;18.27;;;19.80;99.90;;;;;;5062264;28;20444;-87
2022/07/21 04:55:02;;;;;;;19.93;17.40;;;19.90;99.90;;;;;;5057133;28;21079;-89
2022/07/21 04:57:27;;;;;;;23.60;18.33;;;20.00;99.90;;;;;;5052913;28;20187;-87
2022/07/21 04:59:53;;;;;;;26.90;19.20;;;;;;;;;;5061404;28;20188;-88
2022/07/21 05:02:19;;;;;;;23.63;17.73;;;20.10;99.90;;;;;;5070604;28;20778;-87
2022/07/21 05:04:44;;;;;;;20.90;18.43;;;20.10;99.90;;;;;;5065538;28;20441;-86
2022/07/21 05:07:11;;;;;;;22.33;17.13;;;20.10;99.90;;;;;;5047348;28;20176;-86
2022/07/21 05:09:36;;;;;;;22.87;17.53;;;;;;;;;;5078029;28;20177;-88
2022/07/21 05:12:02;;;;;;;23.57;17.97;;;20.30;99.90;;;;;;5054996;28;20429;-87
2022/07/21 05:14:28;;;;;;;22.07;18.60;;;20.30;99.90;;;;;;5078686;28;20430;-86
2022/07/21 05:19:24;;;;;;;20.00;16.80;;;21.10;99.90;;;;;;4984287;28;20280;-89
2022/07/21 05:21:49;;;;;;;23.17;16.63;;;22.60;99.90;;;;;;4996796;28;20514;-89
2022/07/21 05:24:15;;;;;;;17.30;15.53;;;24.50;99.90;;;;;;4996070;28;20187;-90
2022/07/21 05:26:41;;;;;;;16.93;15.13;;;26.70;99.90;;;;;;5017315;28;20221;-88
2022/07/21 05:29:08;;;;;;;19.33;15.70;;;28.40;99.90;;;;;;5085057;28;20647;-91
2022/07/21 05:31:33;;;;;;;18.60;16.80;;;29.30;99.90;;;;;;5081568;28;20201;-90
2022/07/21 05:33:59;;;;;;;17.77;16.03;;;25.60;99.90;;;;;;5078952;28;20441;-94
2022/07/21 05:36:24;;;;;;;22.03;17.47;;;24.40;99.90;;;;;;5086035;28;20683;-89
2022/07/21 05:38:50;;;;;;;23.03;17.37;;;23.20;99.90;;;;;;5082289;28;20253;-87
2022/07/21 05:41:15;;;;;;;20.63;17.30;;;23.10;99.90;;;;;;5081534;28;20739;-89
2022/07/21 05:43:50;;;;;;;22.70;20.27;;;22.90;99.90;;;;;;5089628;28;20532;-87
2022/07/21 05:46:15;;;;;;;23.40;20.20;;;21.90;99.90;;;;;;5082934;28;20183;-89
2022/07/21 05:48:41;;;;;;;19.33;17.23;;;23.00;99.90;;;;;;5075335;28;20577;-88
2022/07/21 05:51:06;;;;;;;23.63;18.20;;;21.80;99.90;;;;;;5088177;28;20283;-87
2022/07/21 05:53:36;;;;;;;19.50;16.70;;;22.80;99.90;;;;;;5091017;28;20323;-89
2022/07/21 05:56:01;;;;;;;21.47;16.97;;;23.10;99.90;;;;;;5086413;28;20179;-89
2022/07/21 05:58:27;;;;;;;19.80;15.03;;;24.60;99.90;;;;;;5095271;28;20425;-90
2022/07/21 06:01:08;;;;;;;17.20;13.10;;;26.60;99.90;;;;;;5093114;28;20194;-91
2022/07/21 06:03:36;;;;;;;15.00;13.00;;;25.00;99.90;;;;;;5095944;28;20186;-89
2022/07/21 06:06:02;;;;;;;15.57;13.10;;;22.70;99.90;;;;;;5100683;28;20443;-90
2022/07/21 06:08:28;;;;;;;13.07;11.67;;;22.70;99.90;;;;;;5100229;28;20496;-90
2022/07/21 06:10:53;;;;;;;18.23;12.67;;;22.20;99.90;;;;;;5080251;28;20430;-88
2022/07/21 06:13:19;;;;;;;15.50;12.20;;;22.40;99.90;;;;;;5097459;28;20176;-89
2022/07/21 06:15:45;;;;;;;14.10;11.37;;;;;;;;;;5079117;28;20191;-88
2022/07/21 06:18:10;;;;;;;13.30;11.90;;;22.80;99.90;;;;;;5090546;28;20215;-88
2022/07/21 06:20:36;;;;;;;17.00;12.40;;;22.90;99.90;;;;;;5087976;28;20446;-89
2022/07/21 06:23:01;;;;;;;14.47;10.83;;;23.50;99.90;;;;;;5088600;28;20553;-88
2022/07/21 06:25:27;;;;;;;12.73;11.50;;;24.70;99.90;;;;;;5098224;28;20175;-88
2022/07/21 06:27:52;;;;;;;18.30;12.07;;;26.00;99.90;;;;;;5095283;28;20259;-89
2022/07/21 06:30:18;;;;;;;12.47;10.37;;;27.70;99.90;;;;;;5092741;28;20784;-88
2022/07/21 06:32:43;;;;;;;10.87;9.17;;;30.50;99.90;;;;;;5090817;28;20197;-89
2022/07/21 06:35:10;;;;;;;12.93;9.93;;;32.20;99.90;;;;;;5087520;28;20185;-90
2022/07/21 06:37:36;;;;;;;11.90;9.90;;;;;;;;;;5084570;28;20204;-91
2022/07/21 06:40:04;;;;;;;11.30;10.20;;;33.70;99.90;;;;;;5085129;28;20439;-88
2022/07/21 06:42:29;;;;;;;9.97;8.97;;;33.60;99.90;;;;;;5088701;28;20553;-88
2022/07/21 06:44:55;;;;;;;10.13;9.23;;;;;;;;;;5095326;28;20549;-88
2022/07/21 06:47:21;;;;;;;14.03;10.33;;;;;;;;;;5086660;28;20299;-89
2022/07/21 06:49:47;;;;;;;10.53;9.43;;;;;;;;;;5094780;28;20816;-89
2022/07/21 06:52:13;;;;;;;10.43;9.30;;;;;;;;;;5100313;28;20466;-90
2022/07/21 06:54:39;;;;;;;11.00;9.60;;;36.20;90.00;;;;;;5091258;28;20460;-88
2022/07/21 06:57:05;;;;;;;10.60;9.70;;;;;;;;;;5092162;28;20490;-89
2022/07/21 06:59:31;;;;;;;10.47;9.40;;;;;;;;;;5090510;28;20584;-89
2022/07/21 07:01:59;;;;;;;10.40;9.40;;;34.20;90.80;;;;;;5084168;28;20527;-89
2022/07/21 07:04:25;;;;;;;14.03;10.23;;;34.30;91.20;;;;;;5095085;28;21344;-87
2022/07/21 07:06:52;;;;;;;11.50;9.50;;;34.30;87.80;;;;;;5088854;28;21333;-91
2022/07/21 07:09:18;;;;;;;10.20;9.30;;;;;;;;;;5095606;28;20423;-89
2022/07/21 07:11:46;;;;;;;10.27;9.23;;;;;;;;;;5089263;28;20422;-89
2022/07/21 07:14:13;;;;;;;10.70;9.23;;;34.30;82.40;;;;;;5088533;28;20439;-88
2022/07/21 07:16:39;;;;;;;11.80;9.67;;;31.00;88.40;;;;;;5091262;28;20451;-90
2022/07/21 07:19:05;;;;;;;10.70;9.60;;;29.60;92.80;;;;;;5090683;28;20529;-88
2022/07/21 07:21:31;;;;;;;11.90;10.20;;;;;;;;;;5089810;28;20543;-88
2022/07/21 07:23:56;;;;;;;11.40;9.20;;;29.50;94.60;;;;;;5092790;28;20190;-88
2022/07/21 07:26:22;;;;;;;10.97;9.60;;;31.30;97.10;;;;;;5087008;28;20458;-89
2022/07/21 07:28:48;;;;;;;10.77;9.60;;;;;;;;;;5084369;28;20212;-89
2022/07/21 07:31:14;;;;;;;9.90;8.90;;;;;;;;;;5101243;28;20189;-90
2022/07/21 07:33:42;;;;;;;9.13;8.23;;;35.20;86.60;;;;;;5115236;28;20433;-92
2022/07/21 07:36:11;;;;;;;12.37;9.10;;;;;;;;;;5108629;28;20432;-92
2022/07/21 07:38:38;;;;;;;10.10;9.20;;;35.90;80.00;;;;;;5101414;28;20870;-87
2022/07/21 07:41:04;;;;;;;10.90;9.80;;;34.00;84.80;;;;;;5093970;28;20428;-88
2022/07/21 07:43:30;;;;;;;12.23;11.03;;;;;;;;;;5089284;28;20443;-88
2022/07/21 07:45:56;;;;;;;10.27;9.27;;;;;;;;;;5092792;28;20177;-89
2022/07/21 07:48:22;;;;;;;11.93;9.80;;;;;;;;;;5090504;28;20449;-90
2022/07/21 07:50:48;;;;;;;11.20;10.07;;;;;;;;;;5095770;28;20514;-88
2022/07/21 07:53:14;;;;;;;14.20;10.13;;;27.30;95.80;;;;;;5091131;28;20445;-88
2022/07/21 07:55:40;;;;;;;10.70;9.20;;;;;;;;;;5096412;28;20435;-91
2022/07/21 07:58:05;;;;;;;16.53;10.97;;;24.90;99.90;;;;;;5089179;28;20203;-89
2022/07/21 08:00:32;;;;;;;11.40;9.43;;;26.40;99.90;;;;;;5086937;28;20436;-88
2022/07/21 08:02:57;;;;;;;12.23;10.93;;;26.10;99.90;;;;;;5088909;28;20188;-88
2022/07/21 08:05:23;;;;;;;12.60;9.53;;;26.00;99.90;;;;;;5098877;28;20429;-89
2022/07/21 08:07:49;;;;;;;14.70;11.33;;;;;;;;;;5094542;28;20209;-91
2022/07/21 08:10:15;;;;;;;11.63;10.03;;;;;;;;;;5092809;28;20180;-88
2022/07/21 08:12:40;;;;;;;12.83;9.37;;;27.40;99.90;;;;;;5095832;28;20448;-90
2022/07/21 08:15:06;;;;;;;11.27;9.93;;;27.80;99.90;;;;;;5113063;27;20449;-90
2022/07/21 08:17:32;;;;;;;11.40;9.90;;;27.80;99.90;;;;;;5094717;28;20221;-88
2022/07/21 08:19:58;;;;;;;12.70;10.03;;;27.50;99.90;;;;;;5103365;28;20458;-88
2022/07/21 08:22:23;;;;;;;10.23;9.03;;;27.10;99.90;;;;;;5094139;28;20296;-88
2022/07/21 08:24:49;;;;;;;10.73;9.70;;;27.80;99.90;;;;;;5099827;28;20170;-89
2022/07/21 08:27:15;;;;;;;9.20;8.17;;;;;;;;;;5091534;28;20200;-90
2022/07/21 08:29:41;;;;;;;9.73;8.40;;;30.10;99.90;;;;;;5093679;28;20182;-91
2022/07/21 08:32:08;;;;;;;10.73;8.37;;;;;;;;;;5082082;28;20538;-89
2022/07/21 08:34:33;;;;;;;15.77;8.33;;;32.40;98.30;;;;;;5084913;28;20440;-89
2022/07/21 08:36:59;;;;;;;11.00;9.20;;;;;;;;;;5095264;28;20452;-92
2022/07/21 08:39:26;;;;;;;11.60;10.07;;;29.50;99.40;;;;;;5096471;28;20187;-89
2022/07/21 08:41:52;;;;;;;10.67;9.57;;;29.20;98.70;;;;;;5091727;28;20614;-88
2022/07/21 08:44:19;;;;;;;11.97;9.23;;;28.40;99.90;;;;;;5092928;28;20448;-89
2022/07/21 08:46:49;;;;;;;10.27;9.13;;;29.20;99.90;;;;;;5087078;28;20563;-89
2022/07/21 08:49:20;;;;;;;9.50;8.67;;;26.00;99.90;;;;;;5093017;28;20433;-88
2022/07/21 08:51:46;;;;;;;12.97;7.90;;;26.50;99.90;;;;;;5109138;27;20450;-90
2022/07/21 08:54:11;;;;;;;11.07;8.63;;;27.70;99.90;;;;;;5090559;28;20511;-88
2022/07/21 08:56:37;;;;;;;8.33;7.53;;;;;;;;;;5090831;28;20199;-88
2022/07/21 08:59:05;;;;;;;9.37;8.03;;;;;;;;;;5091508;28;22109;-89
2022/07/21 09:01:38;;;;;;;8.60;7.70;;;31.30;99.90;;;;;;5085990;28;20884;-88
2022/07/21 09:04:25;;;;;;;7.03;6.40;;;31.70;95.80;;;;;;5081286;28;20464;-88
2022/07/21 09:06:58;;;;;;;9.30;7.17;;;33.50;91.90;;;;;;5079239;28;20483;-91
2022/07/21 09:09:27;;;;;;;7.30;6.27;;;32.30;89.40;;;;;;5088869;28;20433;-90
2022/07/21 09:11:53;;;;;;;7.60;6.83;;;;;;;;;;5094349;28;20448;-89
2022/07/21 09:14:21;;;;;;;9.03;8.13;;;28.20;96.00;;;;;;5084592;28;20849;-90
2022/07/21 09:16:58;;;;;;;7.37;6.73;;;28.80;97.20;;;;;;5087478;28;20471;-87
2022/07/21 09:19:31;;;;;;;10.57;7.30;;;28.40;97.00;;;;;;5087829;28;20447;-88
2022/07/21 09:21:58;;;;;;;8.37;7.57;;;30.10;95.50;;;;;;5094524;28;20463;-88
2022/07/21 09:24:31;;;;;;;8.13;7.33;;;30.10;95.90;;;;;;5105835;28;20435;-89
2022/07/21 09:27:10;;;;;;;8.07;7.27;;;29.70;95.20;;;;;;5092946;28;20449;-89
2022/07/21 09:29:51;;;;;;;8.30;6.60;;;30.50;95.10;;;;;;5088309;28;21378;-88
2022/07/21 09:32:23;;;;;;;7.27;6.10;;;33.60;90.30;;;;;;5098256;28;20431;-90
2022/07/21 09:35:04;;;;;;;11.17;7.17;;;33.80;85.60;;;;;;5089328;28;20436;-88
2022/07/21 09:37:31;;;;;;;7.97;6.63;;;34.90;74.90;;;;;;5080025;28;20470;-92
2022/07/21 09:40:06;;;;;;;10.03;6.30;;;33.60;73.90;;;;;;5091603;28;20431;-92
2022/07/21 09:42:37;;;;;;;7.20;6.57;;;33.90;74.90;;;;;;5094199;28;20506;-87
2022/07/21 09:45:12;;;;;;;8.73;5.93;;;32.00;76.80;;;;;;5083541;28;20944;-88
2022/07/21 09:47:47;;;;;;;7.07;6.37;;;32.70;77.30;;;;;;5082932;28;20446;-90
2022/07/21 09:50:16;;;;;;;7.43;6.70;;;32.20;76.00;;;;;;5079270;28;20462;-88
2022/07/21 09:52:45;;;;;;;6.53;5.93;;;28.50;82.90;;;;;;5090710;28;20437;-91
2022/07/21 09:55:16;;;;;;;7.67;5.70;;;28.40;83.40;;;;;;5084607;28;21017;-88
2022/07/21 09:57:42;;;;;;;5.93;5.40;;;;;;;;;;5086397;28;20466;-87
2022/07/21 10:00:17;;;;;;;7.57;6.80;;;28.20;92.70;;;;;;5103578;28;20437;-87
2022/07/21 10:02:44;;;;;;;7.77;6.47;;;28.00;92.50;;;;;;5088153;28;20518;-90
2022/07/21 10:05:11;;;;;;;8.63;6.50;;;28.10;94.10;;;;;;5091632;28;20434;-89
2022/07/21 10:07:39;;;;;;;6.90;6.20;;;28.30;94.40;;;;;;5094145;28;21021;-90
2022/07/21 10:10:05;;;;;;;11.17;6.50;;;31.10;93.10;;;;;;5090807;28;20451;-90
2022/07/21 10:12:31;;;;;;;6.47;5.87;;;;;;;;;;5090098;28;20438;-90
2022/07/21 10:15:00;;;;;;;6.53;5.93;;;29.90;89.60;;;;;;5093284;28;20453;-88
2022/07/21 10:17:27;;;;;;;7.20;5.60;;;;;;;;;;5106066;27;20988;-88
2022/07/21 10:20:08;;;;;;;6.60;6.00;;;31.70;84.40;;;;;;5091561;28;20817;-87
2022/07/21 10:22:57;;;;;;;8.60;7.67;;;32.30;78.90;;;;;;5098741;28;20454;-90
2022/07/21 10:25:36;;;;;;;7.53;6.30;;;31.30;83.00;;;;;;5119226;28;20491;-92
2022/07/21 10:28:11;;;;;;;8.10;7.00;;;31.20;83.50;;;;;;5105963;28;20472;-90
2022/07/21 10:30:43;;;;;;;6.70;6.10;;;31.10;90.70;;;;;;5112488;28;20478;-91
2022/07/21 10:33:10;;;;;;;7.20;6.53;;;31.00;79.20;;;;;;5099588;28;21002;-90
2022/07/21 10:35:43;;;;;;;8.10;7.20;;;29.60;83.00;;;;;;5098620;28;20428;-91
2022/07/21 10:38:27;;;;;;;9.03;7.37;;;29.60;89.10;;;;;;5097112;28;20444;-90
2022/07/21 10:40:53;;;;;;;6.70;6.00;;;;;;;;;;5098794;28;20460;-90
2022/07/21 10:43:24;;;;;;;6.00;5.47;;;29.00;84.60;;;;;;5096658;28;20449;-90
2022/07/21 10:45:50;;;;;;;6.40;5.80;;;28.80;82.80;;;;;;5091573;28;20446;-89
2022/07/21 10:48:37;;;;;;;5.30;4.80;;;28.30;88.80;;;;;;5090868;28;20944;-90
2022/07/21 10:51:09;;;;;;;6.40;5.20;;;28.00;88.20;;;;;;5092728;28;20463;-90
2022/07/21 10:53:35;;;;;;;6.80;5.13;;;27.60;90.40;;;;;;5103819;28;20437;-90
2022/07/21 10:56:01;;;;;;;6.20;5.53;;;29.10;90.80;;;;;;5096299;28;20431;-90
2022/07/21 10:58:28;;;;;;;7.23;6.07;;;28.20;90.50;;;;;;5093157;28;20445;-91
2022/07/21 11:00:56;;;;;;;9.23;5.67;;;29.10;92.30;;;;;;5089670;28;20214;-91
2022/07/21 11:03:30;;;;;;;9.33;5.23;;;28.30;92.40;;;;;;5092564;28;20461;-90
2022/07/21 11:06:24;;;;;;;6.60;5.90;;;28.50;91.50;;;;;;5088151;28;20425;-90
2022/07/21 11:09:09;;;;;;;6.77;5.90;;;28.50;89.30;;;;;;5089352;28;20453;-90
2022/07/21 11:11:58;;;;;;;8.40;5.87;;;27.70;91.20;;;;;;5096552;28;20926;-90
2022/07/21 11:14:42;;;;;;;10.70;6.90;;;29.10;93.00;;;;;;5103464;28;21048;-91
2022/07/21 11:17:10;;;;;;;7.63;6.10;;;27.60;92.60;;;;;;5089079;28;20464;-92
2022/07/21 11:19:50;;;;;;;9.73;7.17;;;27.60;92.70;;;;;;5088529;28;20440;-92
2022/07/21 11:22:18;;;;;;;8.07;6.80;;;27.10;94.20;;;;;;5094845;28;20471;-91
2022/07/21 11:24:48;;;;;;;12.33;7.63;;;27.00;95.80;;;;;;5084969;28;20447;-93
2022/07/21 11:27:19;;;;;;;8.40;5.83;;;26.90;94.40;;;;;;5114924;23;20502;-87
2022/07/21 11:29:47;;;;;;;8.20;7.30;;;26.90;94.70;;;;;;5095076;28;20445;-83
2022/07/21 11:32:14;;;;;;;7.70;6.90;;;27.30;93.10;;;;;;5080838;28;20436;-87
2022/07/21 11:34:47;;;;;;;9.00;6.73;;;27.60;93.60;;;;;;5081272;28;20726;-85
2022/07/21 11:37:16;;;;;;;8.00;7.13;;;27.20;94.30;;;;;;5081435;28;20453;-86
2022/07/21 11:39:42;;;;;;;8.67;6.80;;;27.30;94.10;;;;;;5079985;28;20429;-85
2022/07/21 11:42:13;;;;;;;7.60;6.90;;;27.20;94.30;;;;;;5103450;27;20487;-85
2022/07/21 11:44:40;;;;;;;10.63;6.77;;;27.70;93.60;;;;;;5085193;28;20190;-87
2022/07/21 11:47:07;;;;;;;6.77;6.17;;;27.40;91.70;;;;;;5095355;28;20459;-89
2022/07/21 11:49:36;;;;;;;8.50;6.90;;;27.40;92.00;;;;;;5117083;27;20435;-86
2022/07/21 11:52:17;;;;;;;8.83;6.77;;;28.60;94.00;;;;;;5107489;28;20471;-88
2022/07/21 11:54:48;;;;;;;8.50;7.20;;;26.90;95.10;;;;;;5080462;28;20511;-88
2022/07/21 11:57:15;;;;;;;10.70;7.23;;;27.20;95.70;;;;;;5102091;28;20450;-89
2022/07/21 11:59:41;;;;;;;7.90;7.10;;;27.30;94.30;;;;;;5102082;28;20510;-89
2022/07/21 12:02:21;;;;;;;8.20;7.20;;;27.20;94.60;;;;;;5095274;28;20559;-90
2022/07/21 12:04:53;;;;;;;9.07;7.10;;;28.70;95.30;;;;;;5093710;28;20469;-86
2022/07/21 12:07:51;;;;;;;6.93;6.23;;;27.10;94.40;;;;;;5075820;28;20468;-86
2022/07/21 12:10:25;;;;;;;7.17;5.90;;;26.90;90.70;;;;;;5080176;28;20449;-86
2022/07/21 12:12:51;;;;;;;6.23;5.63;;;27.00;92.90;;;;;;5099918;28;20435;-87
2022/07/21 12:15:18;;;;;;;8.07;6.07;;;27.00;93.30;;;;;;5084370;28;21080;-89
2022/07/21 12:17:44;;;;;;;5.43;4.93;;;;;;;;;;5093809;28;20449;-89
2022/07/21 12:20:10;;;;;;;7.33;5.77;;;;;;;;;;5091477;28;20515;-89
2022/07/21 12:22:46;;;;;;;7.90;5.67;;;28.90;87.80;;;;;;5085514;28;20470;-89
2022/07/21 12:25:14;;;;;;;6.33;4.60;;;28.50;83.40;;;;;;5082074;28;20437;-87
2022/07/21 12:27:43;;;;;;;5.70;5.10;;;28.90;83.50;;;;;;5090150;28;20457;-91
2022/07/21 12:30:29;;;;;;;5.20;4.80;;;28.50;86.00;;;;;;5097605;28;20434;-88
2022/07/21 12:33:09;;;;;;;7.50;6.80;;;28.50;86.70;;;;;;5090175;28;20432;-87
2022/07/21 12:35:39;;;;;;;9.33;6.47;;;28.70;91.30;;;;;;5071730;28;20469;-90
2022/07/21 12:38:11;;;;;;;8.50;5.90;;;28.70;91.60;;;;;;5077231;28;20491;-88
2022/07/21 12:40:41;;;;;;;10.33;6.17;;;27.60;91.70;;;;;;5084879;28;21335;-89
2022/07/21 12:43:18;;;;;;;8.23;6.10;;;27.50;93.90;;;;;;5088290;28;20467;-88
2022/07/21 12:46:02;;;;;;;6.90;6.03;;;27.50;92.70;;;;;;5102622;28;20435;-88
2022/07/21 12:48:31;;;;;;;9.30;6.03;;;27.50;91.90;;;;;;5080483;28;20435;-87
2022/07/21 12:51:09;;;;;;;7.60;5.70;;;27.50;92.30;;;;;;5077931;28;20474;-88
2022/07/21 12:53:38;;;;;;;12.30;6.20;;;27.80;91.10;;;;;;5083812;28;20681;-88
2022/07/21 12:56:04;;;;;;;9.13;5.87;;;27.90;91.50;;;;;;5083118;28;20445;-88